sensor_id;sensor_type;location;lat;lon;timestamp;P1;durP1;ratioP1;P2;durP2;ratioP2
23868;SDS011;12115;47.128;15.422;2023-03-03T00:01:16;14.13;;;9.40;;
23868;SDS011;12115;47.128;15.422;2023-03-03T00:03:44;14.50;;;9.98;;
23868;SDS011;12115;47.128;15.422;2023-03-03T00:06:12;12.75;;;9.25;;
23868;SDS011;12115;47.128;15.422;2023-03-03T00:08:40;12.23;;;9.30;;
23868;SDS011;12115;47.128;15.422;2023-03-03T00:11:08;12.35;;;8.63;;
23868;SDS011;12115;47.128;15.422;2023-03-03T00:13:46;14.65;;;9.85;;
23868;SDS011;12115;47.128;15.422;2023-03-03T00:19:01;13.02;;;8.32;;
23868;SDS011;12115;47.128;15.422;2023-03-03T00:21:32;14.00;;;9.30;;
23868;SDS011;12115;47.128;15.422;2023-03-03T00:24:21;14.27;;;9.48;;
23868;SDS011;12115;47.128;15.422;2023-03-03T00:26:49;15.18;;;9.15;;
23868;SDS011;12115;47.128;15.422;2023-03-03T00:31:54;11.70;;;8.63;;
23868;SDS011;12115;47.128;15.422;2023-03-03T00:34:26;11.95;;;9.10;;
23868;SDS011;12115;47.128;15.422;2023-03-03T00:36:57;12.48;;;9.23;;
23868;SDS011;12115;47.128;15.422;2023-03-03T00:39:32;11.75;;;9.43;;
23868;SDS011;12115;47.128;15.422;2023-03-03T00:42:11;13.77;;;9.52;;
23868;SDS011;12115;47.128;15.422;2023-03-03T00:44:56;11.98;;;9.82;;
23868;SDS011;12115;47.128;15.422;2023-03-03T00:47:37;13.98;;;9.60;;
23868;SDS011;12115;47.128;15.422;2023-03-03T00:52:36;15.98;;;10.63;;
23868;SDS011;12115;47.128;15.422;2023-03-03T00:55:06;14.70;;;9.85;;
23868;SDS011;12115;47.128;15.422;2023-03-03T00:57:34;13.32;;;9.77;;
23868;SDS011;12115;47.128;15.422;2023-03-03T01:00:03;14.88;;;9.10;;
23868;SDS011;12115;47.128;15.422;2023-03-03T01:02:31;14.48;;;9.95;;
23868;SDS011;12115;47.128;15.422;2023-03-03T01:04:59;15.95;;;9.88;;
23868;SDS011;12115;47.128;15.422;2023-03-03T01:07:26;13.55;;;9.90;;
23868;SDS011;12115;47.128;15.422;2023-03-03T01:09:54;13.23;;;9.23;;
23868;SDS011;12115;47.128;15.422;2023-03-03T01:12:22;14.30;;;9.40;;
23868;SDS011;12115;47.128;15.422;2023-03-03T01:14:50;13.63;;;9.55;;
23868;SDS011;12115;47.128;15.422;2023-03-03T01:17:20;11.80;;;9.30;;
23868;SDS011;12115;47.128;15.422;2023-03-03T01:19:48;12.52;;;9.38;;
23868;SDS011;12115;47.128;15.422;2023-03-03T01:22:15;13.45;;;9.52;;
23868;SDS011;12115;47.128;15.422;2023-03-03T01:24:42;17.10;;;10.10;;
23868;SDS011;12115;47.128;15.422;2023-03-03T01:27:10;12.13;;;8.88;;
23868;SDS011;12115;47.128;15.422;2023-03-03T01:29:37;12.55;;;9.80;;
23868;SDS011;12115;47.128;15.422;2023-03-03T01:32:05;12.20;;;9.30;;
23868;SDS011;12115;47.128;15.422;2023-03-03T01:34:32;12.30;;;8.93;;
23868;SDS011;12115;47.128;15.422;2023-03-03T01:37:00;11.38;;;8.65;;
23868;SDS011;12115;47.128;15.422;2023-03-03T01:39:27;13.73;;;9.18;;
23868;SDS011;12115;47.128;15.422;2023-03-03T01:41:54;11.10;;;9.50;;
23868;SDS011;12115;47.128;15.422;2023-03-03T01:44:22;12.05;;;9.38;;
23868;SDS011;12115;47.128;15.422;2023-03-03T01:46:58;13.48;;;9.60;;
23868;SDS011;12115;47.128;15.422;2023-03-03T01:49:33;12.75;;;10.05;;
23868;SDS011;12115;47.128;15.422;2023-03-03T01:52:10;12.73;;;8.95;;
23868;SDS011;12115;47.128;15.422;2023-03-03T01:54:44;13.00;;;10.00;;
23868;SDS011;12115;47.128;15.422;2023-03-03T01:57:18;14.73;;;9.88;;
23868;SDS011;12115;47.128;15.422;2023-03-03T01:59:49;13.82;;;9.90;;
23868;SDS011;12115;47.128;15.422;2023-03-03T02:02:18;15.25;;;9.75;;
23868;SDS011;12115;47.128;15.422;2023-03-03T02:04:46;11.90;;;9.18;;
23868;SDS011;12115;47.128;15.422;2023-03-03T02:07:15;16.25;;;9.82;;
23868;SDS011;12115;47.128;15.422;2023-03-03T02:12:32;15.15;;;9.77;;
23868;SDS011;12115;47.128;15.422;2023-03-03T02:15:32;12.40;;;9.50;;
23868;SDS011;12115;47.128;15.422;2023-03-03T02:18:05;13.88;;;9.50;;
23868;SDS011;12115;47.128;15.422;2023-03-03T02:23:20;14.88;;;9.80;;
23868;SDS011;12115;47.128;15.422;2023-03-03T02:26:06;15.88;;;9.75;;
23868;SDS011;12115;47.128;15.422;2023-03-03T02:28:37;15.05;;;9.75;;
23868;SDS011;12115;47.128;15.422;2023-03-03T02:31:09;14.15;;;9.73;;
23868;SDS011;12115;47.128;15.422;2023-03-03T02:33:40;11.80;;;9.35;;
23868;SDS011;12115;47.128;15.422;2023-03-03T02:38:58;13.40;;;10.27;;
23868;SDS011;12115;47.128;15.422;2023-03-03T02:44:50;14.73;;;9.73;;
23868;SDS011;12115;47.128;15.422;2023-03-03T02:47:17;14.48;;;9.80;;
23868;SDS011;12115;47.128;15.422;2023-03-03T02:49:45;12.55;;;9.93;;
23868;SDS011;12115;47.128;15.422;2023-03-03T02:52:12;14.15;;;9.90;;
23868;SDS011;12115;47.128;15.422;2023-03-03T02:54:43;14.35;;;9.88;;
23868;SDS011;12115;47.128;15.422;2023-03-03T02:57:11;16.42;;;10.07;;
23868;SDS011;12115;47.128;15.422;2023-03-03T02:59:38;14.48;;;11.25;;
23868;SDS011;12115;47.128;15.422;2023-03-03T03:02:12;15.35;;;10.52;;
23868;SDS011;12115;47.128;15.422;2023-03-03T03:04:40;13.55;;;9.77;;
23868;SDS011;12115;47.128;15.422;2023-03-03T03:07:10;13.98;;;10.25;;
23868;SDS011;12115;47.128;15.422;2023-03-03T03:09:38;17.25;;;10.40;;
23868;SDS011;12115;47.128;15.422;2023-03-03T03:12:05;13.55;;;9.90;;
23868;SDS011;12115;47.128;15.422;2023-03-03T03:14:34;12.48;;;9.55;;
23868;SDS011;12115;47.128;15.422;2023-03-03T03:17:03;14.13;;;9.90;;
23868;SDS011;12115;47.128;15.422;2023-03-03T03:19:30;14.57;;;10.32;;
23868;SDS011;12115;47.128;15.422;2023-03-03T03:22:00;15.73;;;9.65;;
23868;SDS011;12115;47.128;15.422;2023-03-03T03:24:29;15.40;;;10.32;;
23868;SDS011;12115;47.128;15.422;2023-03-03T03:27:01;15.85;;;10.65;;
23868;SDS011;12115;47.128;15.422;2023-03-03T03:29:28;17.10;;;10.38;;
23868;SDS011;12115;47.128;15.422;2023-03-03T03:31:56;12.57;;;10.00;;
23868;SDS011;12115;47.128;15.422;2023-03-03T03:34:31;12.82;;;9.70;;
23868;SDS011;12115;47.128;15.422;2023-03-03T03:36:59;14.40;;;9.45;;
23868;SDS011;12115;47.128;15.422;2023-03-03T03:39:35;16.77;;;10.50;;
23868;SDS011;12115;47.128;15.422;2023-03-03T03:42:02;14.50;;;10.15;;
23868;SDS011;12115;47.128;15.422;2023-03-03T03:47:32;14.68;;;10.23;;
23868;SDS011;12115;47.128;15.422;2023-03-03T03:50:00;14.82;;;10.00;;
23868;SDS011;12115;47.128;15.422;2023-03-03T03:52:27;14.27;;;9.85;;
23868;SDS011;12115;47.128;15.422;2023-03-03T03:54:55;14.00;;;10.38;;
23868;SDS011;12115;47.128;15.422;2023-03-03T03:57:23;14.82;;;10.77;;
23868;SDS011;12115;47.128;15.422;2023-03-03T03:59:52;16.10;;;10.48;;
23868;SDS011;12115;47.128;15.422;2023-03-03T04:02:20;13.32;;;10.05;;
23868;SDS011;12115;47.128;15.422;2023-03-03T04:04:47;15.55;;;10.75;;
23868;SDS011;12115;47.128;15.422;2023-03-03T04:07:15;15.27;;;10.63;;
23868;SDS011;12115;47.128;15.422;2023-03-03T04:09:43;12.35;;;9.25;;
23868;SDS011;12115;47.128;15.422;2023-03-03T04:12:11;13.07;;;10.18;;
23868;SDS011;12115;47.128;15.422;2023-03-03T04:14:38;15.45;;;10.38;;
23868;SDS011;12115;47.128;15.422;2023-03-03T04:17:06;15.23;;;10.20;;
23868;SDS011;12115;47.128;15.422;2023-03-03T04:19:34;16.17;;;10.02;;
23868;SDS011;12115;47.128;15.422;2023-03-03T04:22:03;12.55;;;9.73;;
23868;SDS011;12115;47.128;15.422;2023-03-03T04:24:32;11.15;;;9.05;;
23868;SDS011;12115;47.128;15.422;2023-03-03T04:27:00;12.48;;;9.43;;
23868;SDS011;12115;47.128;15.422;2023-03-03T04:29:28;14.55;;;9.93;;
23868;SDS011;12115;47.128;15.422;2023-03-03T04:31:56;14.25;;;11.27;;
23868;SDS011;12115;47.128;15.422;2023-03-03T04:34:23;15.15;;;10.23;;
23868;SDS011;12115;47.128;15.422;2023-03-03T04:36:52;15.40;;;11.10;;
23868;SDS011;12115;47.128;15.422;2023-03-03T04:39:19;16.02;;;10.95;;
23868;SDS011;12115;47.128;15.422;2023-03-03T04:41:47;15.88;;;10.75;;
23868;SDS011;12115;47.128;15.422;2023-03-03T04:44:14;13.40;;;10.00;;
23868;SDS011;12115;47.128;15.422;2023-03-03T04:46:42;14.02;;;10.20;;
23868;SDS011;12115;47.128;15.422;2023-03-03T04:49:10;14.55;;;9.82;;
23868;SDS011;12115;47.128;15.422;2023-03-03T04:51:39;15.80;;;11.50;;
23868;SDS011;12115;47.128;15.422;2023-03-03T04:54:07;14.27;;;11.35;;
23868;SDS011;12115;47.128;15.422;2023-03-03T04:56:35;14.35;;;9.82;;
23868;SDS011;12115;47.128;15.422;2023-03-03T04:59:03;14.88;;;10.80;;
23868;SDS011;12115;47.128;15.422;2023-03-03T05:01:31;16.02;;;11.40;;
23868;SDS011;12115;47.128;15.422;2023-03-03T05:03:59;17.65;;;10.93;;
23868;SDS011;12115;47.128;15.422;2023-03-03T05:06:26;14.20;;;10.48;;
23868;SDS011;12115;47.128;15.422;2023-03-03T05:08:53;13.30;;;9.50;;
23868;SDS011;12115;47.128;15.422;2023-03-03T05:11:21;21.10;;;12.13;;
23868;SDS011;12115;47.128;15.422;2023-03-03T05:13:49;15.95;;;11.25;;
23868;SDS011;12115;47.128;15.422;2023-03-03T05:16:17;17.73;;;11.50;;
23868;SDS011;12115;47.128;15.422;2023-03-03T05:18:44;18.52;;;10.80;;
23868;SDS011;12115;47.128;15.422;2023-03-03T05:21:13;20.15;;;11.18;;
23868;SDS011;12115;47.128;15.422;2023-03-03T05:23:41;19.52;;;11.45;;
23868;SDS011;12115;47.128;15.422;2023-03-03T05:26:09;14.95;;;10.65;;
23868;SDS011;12115;47.128;15.422;2023-03-03T05:28:36;17.60;;;10.93;;
23868;SDS011;12115;47.128;15.422;2023-03-03T05:31:04;14.00;;;10.52;;
23868;SDS011;12115;47.128;15.422;2023-03-03T05:33:31;14.55;;;10.57;;
23868;SDS011;12115;47.128;15.422;2023-03-03T05:35:59;15.02;;;11.43;;
23868;SDS011;12115;47.128;15.422;2023-03-03T05:38:27;14.45;;;10.90;;
23868;SDS011;12115;47.128;15.422;2023-03-03T05:40:54;16.10;;;10.68;;
23868;SDS011;12115;47.128;15.422;2023-03-03T05:43:21;13.48;;;10.85;;
23868;SDS011;12115;47.128;15.422;2023-03-03T05:45:53;14.65;;;10.98;;
23868;SDS011;12115;47.128;15.422;2023-03-03T05:48:23;17.33;;;11.35;;
23868;SDS011;12115;47.128;15.422;2023-03-03T05:50:51;12.63;;;10.23;;
23868;SDS011;12115;47.128;15.422;2023-03-03T05:53:18;14.95;;;10.90;;
23868;SDS011;12115;47.128;15.422;2023-03-03T05:55:45;16.60;;;11.23;;
23868;SDS011;12115;47.128;15.422;2023-03-03T05:58:13;16.13;;;11.27;;
23868;SDS011;12115;47.128;15.422;2023-03-03T06:00:41;15.55;;;11.80;;
23868;SDS011;12115;47.128;15.422;2023-03-03T06:03:09;14.07;;;10.13;;
23868;SDS011;12115;47.128;15.422;2023-03-03T06:05:36;15.80;;;10.68;;
23868;SDS011;12115;47.128;15.422;2023-03-03T06:08:04;15.00;;;10.48;;
23868;SDS011;12115;47.128;15.422;2023-03-03T06:10:31;15.25;;;9.77;;
23868;SDS011;12115;47.128;15.422;2023-03-03T06:13:02;16.00;;;10.88;;
23868;SDS011;12115;47.128;15.422;2023-03-03T06:15:30;17.20;;;11.35;;
23868;SDS011;12115;47.128;15.422;2023-03-03T06:17:57;15.25;;;10.40;;
23868;SDS011;12115;47.128;15.422;2023-03-03T06:20:25;15.23;;;11.00;;
23868;SDS011;12115;47.128;15.422;2023-03-03T06:22:52;18.73;;;11.85;;
23868;SDS011;12115;47.128;15.422;2023-03-03T06:25:19;17.13;;;12.20;;
23868;SDS011;12115;47.128;15.422;2023-03-03T06:27:47;19.20;;;11.77;;
23868;SDS011;12115;47.128;15.422;2023-03-03T06:30:14;20.27;;;12.38;;
23868;SDS011;12115;47.128;15.422;2023-03-03T06:32:42;19.02;;;12.25;;
23868;SDS011;12115;47.128;15.422;2023-03-03T06:35:10;15.93;;;10.60;;
23868;SDS011;12115;47.128;15.422;2023-03-03T06:37:38;16.48;;;10.15;;
23868;SDS011;12115;47.128;15.422;2023-03-03T06:40:06;15.00;;;9.65;;
23868;SDS011;12115;47.128;15.422;2023-03-03T06:42:35;15.52;;;10.65;;
23868;SDS011;12115;47.128;15.422;2023-03-03T06:45:02;15.73;;;11.23;;
23868;SDS011;12115;47.128;15.422;2023-03-03T06:47:30;11.45;;;8.90;;
23868;SDS011;12115;47.128;15.422;2023-03-03T06:49:59;14.50;;;10.38;;
23868;SDS011;12115;47.128;15.422;2023-03-03T06:52:26;15.35;;;11.05;;
23868;SDS011;12115;47.128;15.422;2023-03-03T06:54:55;17.83;;;11.75;;
23868;SDS011;12115;47.128;15.422;2023-03-03T06:57:28;17.58;;;12.88;;
23868;SDS011;12115;47.128;15.422;2023-03-03T07:02:37;17.08;;;11.70;;
23868;SDS011;12115;47.128;15.422;2023-03-03T07:05:06;16.30;;;11.55;;
23868;SDS011;12115;47.128;15.422;2023-03-03T07:07:40;19.17;;;12.52;;
23868;SDS011;12115;47.128;15.422;2023-03-03T07:10:17;18.33;;;11.18;;
23868;SDS011;12115;47.128;15.422;2023-03-03T07:12:55;21.00;;;11.68;;
23868;SDS011;12115;47.128;15.422;2023-03-03T07:15:35;18.27;;;11.48;;
23868;SDS011;12115;47.128;15.422;2023-03-03T07:18:02;18.25;;;12.38;;
23868;SDS011;12115;47.128;15.422;2023-03-03T07:20:41;20.48;;;12.98;;
23868;SDS011;12115;47.128;15.422;2023-03-03T07:25:55;20.50;;;12.32;;
23868;SDS011;12115;47.128;15.422;2023-03-03T07:28:23;18.60;;;12.00;;
23868;SDS011;12115;47.128;15.422;2023-03-03T07:30:56;17.02;;;12.77;;
23868;SDS011;12115;47.128;15.422;2023-03-03T07:33:28;16.83;;;12.45;;
23868;SDS011;12115;47.128;15.422;2023-03-03T07:36:18;16.55;;;12.23;;
23868;SDS011;12115;47.128;15.422;2023-03-03T07:39:03;19.90;;;12.98;;
23868;SDS011;12115;47.128;15.422;2023-03-03T07:41:42;17.60;;;13.02;;
23868;SDS011;12115;47.128;15.422;2023-03-03T07:44:16;20.30;;;12.73;;
23868;SDS011;12115;47.128;15.422;2023-03-03T07:46:52;15.93;;;12.60;;
23868;SDS011;12115;47.128;15.422;2023-03-03T07:51:55;22.77;;;14.38;;
23868;SDS011;12115;47.128;15.422;2023-03-03T07:54:26;22.95;;;13.52;;
23868;SDS011;12115;47.128;15.422;2023-03-03T07:59:47;16.85;;;12.07;;
23868;SDS011;12115;47.128;15.422;2023-03-03T08:10:36;24.27;;;13.15;;
23868;SDS011;12115;47.128;15.422;2023-03-03T08:15:51;22.92;;;13.65;;
23868;SDS011;12115;47.128;15.422;2023-03-03T08:18:22;26.40;;;13.45;;
23868;SDS011;12115;47.128;15.422;2023-03-03T08:20:57;21.08;;;13.02;;
23868;SDS011;12115;47.128;15.422;2023-03-03T08:23:26;22.23;;;13.02;;
23868;SDS011;12115;47.128;15.422;2023-03-03T08:25:54;24.52;;;13.93;;
23868;SDS011;12115;47.128;15.422;2023-03-03T08:28:21;20.27;;;13.35;;
23868;SDS011;12115;47.128;15.422;2023-03-03T08:30:49;19.70;;;12.98;;
23868;SDS011;12115;47.128;15.422;2023-03-03T08:33:25;16.00;;;11.90;;
23868;SDS011;12115;47.128;15.422;2023-03-03T08:35:53;21.48;;;12.05;;
23868;SDS011;12115;47.128;15.422;2023-03-03T08:38:20;16.42;;;11.77;;
23868;SDS011;12115;47.128;15.422;2023-03-03T08:40:48;20.35;;;12.07;;
23868;SDS011;12115;47.128;15.422;2023-03-03T08:43:16;19.90;;;12.25;;
23868;SDS011;12115;47.128;15.422;2023-03-03T08:45:47;18.73;;;11.40;;
23868;SDS011;12115;47.128;15.422;2023-03-03T08:48:16;16.90;;;11.77;;
23868;SDS011;12115;47.128;15.422;2023-03-03T08:50:44;18.98;;;11.65;;
23868;SDS011;12115;47.128;15.422;2023-03-03T08:53:12;21.48;;;11.18;;
23868;SDS011;12115;47.128;15.422;2023-03-03T08:55:40;14.68;;;10.20;;
23868;SDS011;12115;47.128;15.422;2023-03-03T08:58:08;17.20;;;11.57;;
23868;SDS011;12115;47.128;15.422;2023-03-03T09:00:36;14.15;;;9.40;;
23868;SDS011;12115;47.128;15.422;2023-03-03T09:03:04;15.23;;;9.98;;
23868;SDS011;12115;47.128;15.422;2023-03-03T09:05:34;15.13;;;9.27;;
23868;SDS011;12115;47.128;15.422;2023-03-03T09:08:03;12.70;;;8.32;;
23868;SDS011;12115;47.128;15.422;2023-03-03T09:10:31;11.02;;;8.43;;
23868;SDS011;12115;47.128;15.422;2023-03-03T09:13:09;14.32;;;7.97;;
23868;SDS011;12115;47.128;15.422;2023-03-03T09:15:43;13.70;;;7.97;;
23868;SDS011;12115;47.128;15.422;2023-03-03T09:21:01;10.63;;;7.50;;
23868;SDS011;12115;47.128;15.422;2023-03-03T09:28:54;10.75;;;7.30;;
23868;SDS011;12115;47.128;15.422;2023-03-03T09:31:45;18.27;;;9.05;;
23868;SDS011;12115;47.128;15.422;2023-03-03T09:36:51;16.50;;;7.97;;
23868;SDS011;12115;47.128;15.422;2023-03-03T09:44:55;9.77;;;7.47;;
23868;SDS011;12115;47.128;15.422;2023-03-03T09:59:35;12.77;;;7.28;;
23868;SDS011;12115;47.128;15.422;2023-03-03T10:02:36;10.57;;;7.57;;
23868;SDS011;12115;47.128;15.422;2023-03-03T10:05:20;12.63;;;8.07;;
23868;SDS011;12115;47.128;15.422;2023-03-03T10:21:55;11.93;;;7.70;;
23868;SDS011;12115;47.128;15.422;2023-03-03T10:33:31;16.58;;;10.00;;
23868;SDS011;12115;47.128;15.422;2023-03-03T10:36:07;15.00;;;11.15;;
23868;SDS011;12115;47.128;15.422;2023-03-03T10:46:50;11.30;;;8.68;;
23868;SDS011;12115;47.128;15.422;2023-03-03T10:52:47;15.93;;;8.98;;
23868;SDS011;12115;47.128;15.422;2023-03-03T10:55:46;18.75;;;9.35;;
23868;SDS011;12115;47.128;15.422;2023-03-03T11:04:14;13.98;;;8.35;;
23868;SDS011;12115;47.128;15.422;2023-03-03T11:07:09;14.40;;;7.30;;
23868;SDS011;12115;47.128;15.422;2023-03-03T11:10:03;13.82;;;7.00;;
23868;SDS011;12115;47.128;15.422;2023-03-03T11:12:53;11.23;;;7.63;;
23868;SDS011;12115;47.128;15.422;2023-03-03T11:18:36;11.15;;;7.55;;
23868;SDS011;12115;47.128;15.422;2023-03-03T11:35:25;12.18;;;7.38;;
23868;SDS011;12115;47.128;15.422;2023-03-03T11:46:48;13.13;;;8.57;;
23868;SDS011;12115;47.128;15.422;2023-03-03T11:54:29;13.52;;;8.98;;
23868;SDS011;12115;47.128;15.422;2023-03-03T11:57:17;13.50;;;8.23;;
23868;SDS011;12115;47.128;15.422;2023-03-03T12:00:03;13.93;;;8.25;;
23868;SDS011;12115;47.128;15.422;2023-03-03T12:02:50;14.88;;;8.25;;
23868;SDS011;12115;47.128;15.422;2023-03-03T12:08:07;14.43;;;8.43;;
23868;SDS011;12115;47.128;15.422;2023-03-03T12:16:51;9.52;;;7.10;;
23868;SDS011;12115;47.128;15.422;2023-03-03T12:20:02;11.23;;;7.68;;
23868;SDS011;12115;47.128;15.422;2023-03-03T12:22:31;13.43;;;7.40;;
23868;SDS011;12115;47.128;15.422;2023-03-03T12:25:04;13.95;;;8.30;;
23868;SDS011;12115;47.128;15.422;2023-03-03T12:28:00;10.75;;;8.32;;
23868;SDS011;12115;47.128;15.422;2023-03-03T12:45:13;14.85;;;8.68;;
23868;SDS011;12115;47.128;15.422;2023-03-03T12:47:50;12.23;;;8.50;;
23868;SDS011;12115;47.128;15.422;2023-03-03T12:50:33;31.80;;;8.75;;
23868;SDS011;12115;47.128;15.422;2023-03-03T12:56:02;16.65;;;8.20;;
23868;SDS011;12115;47.128;15.422;2023-03-03T12:59:02;17.30;;;8.38;;
23868;SDS011;12115;47.128;15.422;2023-03-03T13:01:33;11.55;;;8.68;;
23868;SDS011;12115;47.128;15.422;2023-03-03T13:12:44;14.05;;;8.35;;
23868;SDS011;12115;47.128;15.422;2023-03-03T13:24:19;14.80;;;8.82;;
23868;SDS011;12115;47.128;15.422;2023-03-03T13:27:05;15.48;;;8.10;;
23868;SDS011;12115;47.128;15.422;2023-03-03T13:29:38;16.20;;;8.95;;
23868;SDS011;12115;47.128;15.422;2023-03-03T13:32:32;18.05;;;8.77;;
23868;SDS011;12115;47.128;15.422;2023-03-03T13:35:43;13.85;;;8.15;;
23868;SDS011;12115;47.128;15.422;2023-03-03T13:38:08;16.35;;;8.57;;
23868;SDS011;12115;47.128;15.422;2023-03-03T13:40:44;12.20;;;9.10;;
23868;SDS011;12115;47.128;15.422;2023-03-03T13:43:18;16.65;;;9.32;;
23868;SDS011;12115;47.128;15.422;2023-03-03T13:56:48;11.50;;;9.23;;
23868;SDS011;12115;47.128;15.422;2023-03-03T14:13:39;16.00;;;9.00;;
23868;SDS011;12115;47.128;15.422;2023-03-03T14:24:21;18.00;;;9.27;;
23868;SDS011;12115;47.128;15.422;2023-03-03T14:26:53;14.15;;;8.82;;
23868;SDS011;12115;47.128;15.422;2023-03-03T14:31:56;15.45;;;8.85;;
23868;SDS011;12115;47.128;15.422;2023-03-03T14:37:20;13.30;;;8.80;;
23868;SDS011;12115;47.128;15.422;2023-03-03T14:43:17;15.20;;;8.38;;
23868;SDS011;12115;47.128;15.422;2023-03-03T14:48:36;14.70;;;8.43;;
23868;SDS011;12115;47.128;15.422;2023-03-03T14:50:59;14.60;;;8.98;;
23868;SDS011;12115;47.128;15.422;2023-03-03T14:56:24;14.77;;;9.70;;
23868;SDS011;12115;47.128;15.422;2023-03-03T15:01:42;15.23;;;8.57;;
23868;SDS011;12115;47.128;15.422;2023-03-03T15:04:32;13.70;;;8.50;;
23868;SDS011;12115;47.128;15.422;2023-03-03T15:06:59;12.05;;;8.38;;
23868;SDS011;12115;47.128;15.422;2023-03-03T15:09:55;14.48;;;9.25;;
23868;SDS011;12115;47.128;15.422;2023-03-03T15:12:41;12.23;;;8.48;;
23868;SDS011;12115;47.128;15.422;2023-03-03T15:17:42;15.52;;;8.43;;
23868;SDS011;12115;47.128;15.422;2023-03-03T15:25:57;14.13;;;9.20;;
23868;SDS011;12115;47.128;15.422;2023-03-03T15:31:30;12.90;;;8.75;;
23868;SDS011;12115;47.128;15.422;2023-03-03T15:36:54;14.77;;;9.27;;
23868;SDS011;12115;47.128;15.422;2023-03-03T15:42:06;14.02;;;9.07;;
23868;SDS011;12115;47.128;15.422;2023-03-03T15:50:14;17.88;;;8.30;;
23868;SDS011;12115;47.128;15.422;2023-03-03T15:52:55;13.57;;;9.05;;
23868;SDS011;12115;47.128;15.422;2023-03-03T15:58:37;12.18;;;8.52;;
23868;SDS011;12115;47.128;15.422;2023-03-03T16:01:32;12.55;;;8.05;;
23868;SDS011;12115;47.128;15.422;2023-03-03T16:04:10;11.73;;;7.68;;
23868;SDS011;12115;47.128;15.422;2023-03-03T16:12:29;14.13;;;7.53;;
23868;SDS011;12115;47.128;15.422;2023-03-03T16:20:17;16.92;;;8.48;;
23868;SDS011;12115;47.128;15.422;2023-03-03T16:42:25;15.23;;;8.35;;
23868;SDS011;12115;47.128;15.422;2023-03-03T16:56:00;16.38;;;11.00;;
23868;SDS011;12115;47.128;15.422;2023-03-03T17:01:35;16.17;;;10.00;;
23868;SDS011;12115;47.128;15.422;2023-03-03T17:04:10;16.60;;;9.30;;
23868;SDS011;12115;47.128;15.422;2023-03-03T17:07:10;17.80;;;9.80;;
23868;SDS011;12115;47.128;15.422;2023-03-03T17:10:15;14.80;;;8.40;;
23868;SDS011;12115;47.128;15.422;2023-03-03T17:24:46;15.00;;;7.78;;
23868;SDS011;12115;47.128;15.422;2023-03-03T17:27:49;10.80;;;7.63;;
23868;SDS011;12115;47.128;15.422;2023-03-03T17:38:20;14.60;;;9.80;;
23868;SDS011;12115;47.128;15.422;2023-03-03T17:41:16;19.93;;;9.73;;
23868;SDS011;12115;47.128;15.422;2023-03-03T17:44:01;13.95;;;8.98;;
23868;SDS011;12115;47.128;15.422;2023-03-03T17:55:27;13.98;;;8.48;;
23868;SDS011;12115;47.128;15.422;2023-03-03T18:09:51;18.17;;;10.82;;
23868;SDS011;12115;47.128;15.422;2023-03-03T18:27:00;15.73;;;9.90;;
23868;SDS011;12115;47.128;15.422;2023-03-03T18:35:29;16.08;;;9.15;;
23868;SDS011;12115;47.128;15.422;2023-03-03T18:38:23;13.40;;;8.68;;
23868;SDS011;12115;47.128;15.422;2023-03-03T18:40:58;12.45;;;8.98;;
23868;SDS011;12115;47.128;15.422;2023-03-03T18:48:50;16.98;;;8.93;;
23868;SDS011;12115;47.128;15.422;2023-03-03T19:13:46;25.67;;;15.32;;
23868;SDS011;12115;47.128;15.422;2023-03-03T19:21:33;28.38;;;13.88;;
23868;SDS011;12115;47.128;15.422;2023-03-03T19:29:43;26.02;;;13.38;;
23868;SDS011;12115;47.128;15.422;2023-03-03T19:35:07;22.02;;;12.90;;
23868;SDS011;12115;47.128;15.422;2023-03-03T19:40:41;24.58;;;11.50;;
23868;SDS011;12115;47.128;15.422;2023-03-03T19:49:13;19.17;;;10.77;;
23868;SDS011;12115;47.128;15.422;2023-03-03T20:00:26;15.68;;;9.73;;
23868;SDS011;12115;47.128;15.422;2023-03-03T20:03:41;17.77;;;10.05;;
23868;SDS011;12115;47.128;15.422;2023-03-03T20:09:56;16.65;;;10.55;;
23868;SDS011;12115;47.128;15.422;2023-03-03T20:18:45;19.20;;;10.70;;
23868;SDS011;12115;47.128;15.422;2023-03-03T20:21:37;16.02;;;9.85;;
23868;SDS011;12115;47.128;15.422;2023-03-03T20:24:14;13.90;;;9.23;;
23868;SDS011;12115;47.128;15.422;2023-03-03T20:38:03;13.85;;;9.75;;
23868;SDS011;12115;47.128;15.422;2023-03-03T20:46:56;16.75;;;10.00;;
23868;SDS011;12115;47.128;15.422;2023-03-03T20:49:38;15.02;;;9.65;;
23868;SDS011;12115;47.128;15.422;2023-03-03T21:00:55;17.50;;;10.88;;
23868;SDS011;12115;47.128;15.422;2023-03-03T21:03:38;19.50;;;11.77;;
23868;SDS011;12115;47.128;15.422;2023-03-03T21:08:52;21.48;;;10.85;;
23868;SDS011;12115;47.128;15.422;2023-03-03T21:11:38;18.45;;;11.07;;
23868;SDS011;12115;47.128;15.422;2023-03-03T21:14:18;18.10;;;10.05;;
23868;SDS011;12115;47.128;15.422;2023-03-03T21:16:47;15.30;;;10.48;;
23868;SDS011;12115;47.128;15.422;2023-03-03T21:19:24;18.85;;;10.27;;
23868;SDS011;12115;47.128;15.422;2023-03-03T21:21:57;15.30;;;9.48;;
23868;SDS011;12115;47.128;15.422;2023-03-03T21:27:24;17.95;;;10.82;;
23868;SDS011;12115;47.128;15.422;2023-03-03T21:30:03;17.67;;;10.75;;
23868;SDS011;12115;47.128;15.422;2023-03-03T21:32:35;16.88;;;10.13;;
23868;SDS011;12115;47.128;15.422;2023-03-03T21:35:09;13.32;;;10.15;;
23868;SDS011;12115;47.128;15.422;2023-03-03T21:37:46;20.35;;;11.43;;
23868;SDS011;12115;47.128;15.422;2023-03-03T21:40:23;17.58;;;11.95;;
23868;SDS011;12115;47.128;15.422;2023-03-03T21:42:56;20.42;;;12.40;;
23868;SDS011;12115;47.128;15.422;2023-03-03T21:45:26;20.23;;;11.75;;
23868;SDS011;12115;47.128;15.422;2023-03-03T21:47:55;14.88;;;11.45;;
23868;SDS011;12115;47.128;15.422;2023-03-03T21:50:27;19.83;;;12.05;;
23868;SDS011;12115;47.128;15.422;2023-03-03T21:52:58;18.85;;;12.07;;
23868;SDS011;12115;47.128;15.422;2023-03-03T21:55:26;17.73;;;10.73;;
23868;SDS011;12115;47.128;15.422;2023-03-03T21:57:53;17.25;;;11.93;;
23868;SDS011;12115;47.128;15.422;2023-03-03T22:00:21;22.42;;;12.52;;
23868;SDS011;12115;47.128;15.422;2023-03-03T22:02:48;17.83;;;11.82;;
23868;SDS011;12115;47.128;15.422;2023-03-03T22:05:16;16.50;;;11.25;;
23868;SDS011;12115;47.128;15.422;2023-03-03T22:07:43;20.42;;;11.00;;
23868;SDS011;12115;47.128;15.422;2023-03-03T22:10:11;14.85;;;9.70;;
23868;SDS011;12115;47.128;15.422;2023-03-03T22:12:38;16.13;;;10.27;;
23868;SDS011;12115;47.128;15.422;2023-03-03T22:15:06;15.40;;;10.75;;
23868;SDS011;12115;47.128;15.422;2023-03-03T22:17:34;14.23;;;10.38;;
23868;SDS011;12115;47.128;15.422;2023-03-03T22:20:01;16.40;;;10.10;;
23868;SDS011;12115;47.128;15.422;2023-03-03T22:22:29;19.08;;;10.25;;
23868;SDS011;12115;47.128;15.422;2023-03-03T22:24:56;13.77;;;10.23;;
23868;SDS011;12115;47.128;15.422;2023-03-03T22:27:23;13.85;;;10.05;;
23868;SDS011;12115;47.128;15.422;2023-03-03T22:29:51;18.27;;;10.70;;
23868;SDS011;12115;47.128;15.422;2023-03-03T22:32:18;17.67;;;10.95;;
23868;SDS011;12115;47.128;15.422;2023-03-03T22:34:46;17.42;;;10.38;;
23868;SDS011;12115;47.128;15.422;2023-03-03T22:37:13;17.80;;;10.77;;
23868;SDS011;12115;47.128;15.422;2023-03-03T22:39:41;15.50;;;10.93;;